DW3777 Harstad NO current weather conditions

sailwx.info

Wind from 205 at 8 knots gusting 9

Air temperature -0.0° C
Dewpoint -2.4° C

Last reported at 2019-Nov-15 07:01 UTC.
Time now 2019-Nov-15 08:08 UTC

Location: N 68°48' E 016°24'.
View on Google Maps.

See reports from other nearby stations

  
Tides and Currents Weather Stations Pressure Air Temp Water Temp Dewpoint Dewpoint Depression Visibility Wind Speed Wind Dir Waves Ship Positions
date/time (UTC)wind fromknots sea level pressurealtimeterstation pressurevisibilityair tempwater tempwave heightnotes
2019-Nov-15 07:01 205 8 gusting 9 -0.0
2019-Nov-15 06:46 222 7 gusting 12 -0.0
2019-Nov-15 06:30 220 7 gusting 11 -0.0
2019-Nov-15 06:16 207 9 gusting 12 -0.0
2019-Nov-15 06:01 212 11 gusting 13 -0.6
2019-Nov-15 05:46 194 10 gusting 11 -0.6
2019-Nov-15 05:30 199 8 gusting 9 -0.6
2019-Nov-15 05:15 203 6 gusting 8 -0.6
2019-Nov-15 05:00 214 5 gusting 8 -0.6
2019-Nov-15 04:45 223 7 gusting 10 -0.6
2019-Nov-15 04:30 218 8 gusting 12 -0.6
2019-Nov-15 04:15 226 11 gusting 14 -0.6
2019-Nov-15 04:00 232 11 gusting 13 -0.6
2019-Nov-15 03:45 236 9 gusting 12 -0.6
2019-Nov-15 03:30 250 11 gusting 14 -0.6
2019-Nov-15 03:15 245 11 gusting 14 -0.6
2019-Nov-15 03:01 234 13 gusting 15 -0.6
2019-Nov-15 02:48 231 12 gusting 13 -0.6
2019-Nov-15 02:31 252 13 gusting 15 -0.6
2019-Nov-15 02:16 248 13 gusting 14 -0.6
2019-Nov-15 02:01 251 13 gusting 15 -0.6
2019-Nov-15 01:46 246 12 gusting 14 -0.6
2019-Nov-15 01:32 236 9 gusting 12 -0.6
2019-Nov-15 01:16 231 7 gusting 9 -0.6
2019-Nov-15 00:46 200 6 gusting 6 -0.6
2019-Nov-15 00:31 186 5 gusting 6 -0.6
2019-Nov-15 00:16 186 5 gusting 6 -0.6
2019-Nov-15 00:01 216 4 gusting 5 -0.0
2019-Nov-14 23:46 219 3 gusting 6 -0.0
2019-Nov-14 23:30 224 4 gusting 5 -0.0
2019-Nov-14 23:16 224 2 gusting 4 -0.0
2019-Nov-14 23:00 227 5 gusting 6 -0.6
2019-Nov-14 22:46 229 4 gusting 6 -0.6
2019-Nov-14 22:30 233 4 gusting 7 -0.0
2019-Nov-14 22:15 274 7 gusting 11 -0.0
2019-Nov-14 22:01 266 6 gusting 9 -0.0
2019-Nov-14 21:46 288 6 gusting 10 -0.0
2019-Nov-14 21:31 283 4 gusting 7 -0.0
2019-Nov-14 21:01 285 4 gusting 6 -0.6
2019-Nov-14 20:47 288 5 gusting 6 -0.6
2019-Nov-14 20:31 288 6 gusting 7 -0.6
2019-Nov-14 20:16 265 6 gusting 6 -0.6
2019-Nov-14 20:01 277 6 gusting 7 -0.6
2019-Nov-14 19:46 266 6 gusting 6 -0.6
2019-Nov-14 19:31 269 5 gusting 6 -0.6
2019-Nov-14 19:16 264 6 gusting 8 -0.6
2019-Nov-14 19:01 271 6 gusting 8 -0.0
2019-Nov-14 18:45 273 6 gusting 7 -0.0
2019-Nov-14 18:30 274 6 gusting 8 -0.0
2019-Nov-14 18:16 273 7 gusting 9 -0.0
2019-Nov-14 18:01 264 7 gusting 8 -0.6
2019-Nov-14 17:46 260 6 gusting 7 -0.6
2019-Nov-14 17:31 246 6 gusting 7 -0.0
2019-Nov-14 17:16 251 6 gusting 8 -0.0
2019-Nov-14 17:00 245 6 gusting 7 -0.6
2019-Nov-14 16:46 238 6 gusting 8 -0.6
2019-Nov-14 16:31 239 7 gusting 9 -0.6
2019-Nov-14 16:15 243 8 gusting 9 -0.6
2019-Nov-14 16:01 252 7 gusting 8 -0.0
2019-Nov-14 15:45 261 8 gusting 9 -0.0
2019-Nov-14 15:30 260 7 gusting 8 -0.0
2019-Nov-14 15:16 244 6 gusting 6 -0.0
2019-Nov-14 15:00 240 6 gusting 7 -0.0
2019-Nov-14 14:45 229 6 gusting 7 -0.0
2019-Nov-14 14:30 227 6 gusting 8 -0.0
2019-Nov-14 14:15 222 4 gusting 6 -0.0
2019-Nov-14 13:45 231 5 gusting 6 -0.0
2019-Nov-14 13:30 226 5 gusting 7 -0.0
2019-Nov-14 13:15 221 4 gusting 6 -0.0
2019-Nov-14 13:00 219 3 gusting 5 -0.0
2019-Nov-14 12:45 262 2 gusting 3 -0.0
2019-Nov-14 12:30 255 2 gusting 5 -0.0
2019-Nov-14 12:15 238 5 gusting 6 -0.0
2019-Nov-14 12:00 220 4 gusting 6 -0.0
2019-Nov-14 11:45 243 1 gusting 4 -0.0
2019-Nov-14 11:31 247 4 gusting 6 -0.0
2019-Nov-14 11:16 243 6 gusting 7 -0.0
2019-Nov-14 11:01 250 5 gusting 7 -0.6
2019-Nov-14 10:47 255 8 gusting 9 -0.6
2019-Nov-14 10:32 251 9 gusting 11 -0.6
2019-Nov-14 10:17 237 6 gusting 8 -0.6
2019-Nov-14 10:01 234 7 gusting 9 -0.0
2019-Nov-14 09:46 218 5 gusting 7 -0.6
2019-Nov-14 09:31 197 4 gusting 5 -1.1
2019-Nov-14 09:17 167 4 gusting 5 -1.1
2019-Nov-14 09:02 177 2 gusting 4 -0.6
2019-Nov-14 08:46 180 4 gusting 5 -0.6
2019-Nov-14 08:31 167 3 gusting 6 -0.6
2019-Nov-14 08:15 165 5 gusting 7 -1.1
2019-Nov-14 08:00 161 6 gusting 7 -1.1
2019-Nov-14 07:46 152 6 gusting 10 -1.1
2019-Nov-14 07:31 160 8 gusting 11 -1.1
2019-Nov-14 07:15 153 11 gusting 13 -1.1
2019-Nov-14 07:01 139 9 gusting 11 -1.1
2019-Nov-14 06:46 148 11 gusting 14 -1.1
2019-Nov-14 06:30 160 11 gusting 13 -1.1
2019-Nov-14 06:16 136 9 gusting 11 -1.1
2019-Nov-14 06:01 140 9 gusting 12 -1.1
2019-Nov-14 05:45 138 9 gusting 12 -1.1
2019-Nov-14 05:30 126 9 gusting 11 -1.7
2019-Nov-14 05:16 133 8 gusting 11 -1.7
2019-Nov-14 05:00 134 9 gusting 12 -1.1
2019-Nov-14 04:45 139 12 gusting 13 -1.7
2019-Nov-14 04:30 129 10 gusting 12 -1.1
2019-Nov-14 04:15 139 10 gusting 13 -1.1
2019-Nov-14 04:00 154 11 gusting 13 -1.1
2019-Nov-14 03:45 136 13 gusting 14 -1.1
2019-Nov-14 03:30 148 12 gusting 14 -1.7
2019-Nov-14 03:15 138 8 gusting 11 -1.7
2019-Nov-14 03:00 127 11 gusting 13 -1.7
2019-Nov-14 02:45 143 10 gusting 13 -1.7
2019-Nov-14 02:30 135 12 gusting 15 -1.7
2019-Nov-14 02:15 136 13 gusting 16 -1.7
2019-Nov-14 02:00 144 15 gusting 18 -1.7
2019-Nov-14 01:46 136 14 gusting 19 -1.7
2019-Nov-14 01:32 138 14 gusting 18 -1.7
2019-Nov-14 01:17 145 15 gusting 19 -2.2
2019-Nov-14 01:02 143 17 gusting 19 -1.7
2019-Nov-14 00:47 139 17 gusting 19 -2.2
2019-Nov-14 00:31 153 16 gusting 19 -1.7
2019-Nov-14 00:15 146 18 gusting 19 -1.7
2019-Nov-14 00:01 140 17 gusting 19 -2.2
2019-Nov-13 23:45 132 16 gusting 20 -1.7
2019-Nov-13 23:30 149 17 gusting 21 -1.7
2019-Nov-13 23:15 146 18 gusting 20 -2.2
2019-Nov-13 23:00 145 15 gusting 18 -2.2
2019-Nov-13 22:45 140 14 gusting 18 -2.2
2019-Nov-13 22:31 140 15 gusting 18 -2.2
2019-Nov-13 22:15 138 14 gusting 19 -2.2
2019-Nov-13 22:01 129 16 gusting 20 -2.2
2019-Nov-13 21:45 132 16 gusting 19 -2.2
2019-Nov-13 21:30 134 14 gusting 19 -1.7
2019-Nov-13 21:15 134 13 gusting 17 -1.7
2019-Nov-13 21:00 131 13 gusting 15 -1.7
2019-Nov-13 20:45 128 13 gusting 19 -1.7
2019-Nov-13 20:30 120 11 gusting 17 -2.2
2019-Nov-13 20:15 124 11 gusting 15 -1.7
2019-Nov-13 20:00 130 13 gusting 17 -1.7
2019-Nov-13 19:45 133 15 gusting 19 -2.2
2019-Nov-13 19:15 139 18 gusting 22 -2.2
2019-Nov-13 19:00 151 19 gusting 25 -1.7
2019-Nov-13 18:45 135 22 gusting 26 -2.2
2019-Nov-13 18:30 137 19 gusting 22 -2.2
2019-Nov-13 18:15 140 17 gusting 20 -2.2
2019-Nov-13 18:00 141 17 gusting 20 -1.7
2019-Nov-13 17:30 143 18 gusting 21 -2.2
2019-Nov-13 17:15 138 17 gusting 19 -2.2
2019-Nov-13 17:00 129 14 gusting 18 -1.7
2019-Nov-13 16:31 139 15 gusting 19 -2.2
2019-Nov-13 16:17 139 18 gusting 22 -2.2
2019-Nov-13 16:02 141 19 gusting 21 -2.2
2019-Nov-13 15:48 146 19 gusting 22 -2.2
2019-Nov-13 15:32 143 17 gusting 21 -2.2
2019-Nov-13 15:17 148 19 gusting 23 -2.2
2019-Nov-13 15:01 145 20 gusting 24 -2.2
2019-Nov-13 14:46 134 21 gusting 25 -2.2
2019-Nov-13 14:31 132 21 gusting 26 -2.2
2019-Nov-13 14:16 144 20 gusting 26 -2.2
2019-Nov-13 14:02 137 26 gusting 30 -2.2
2019-Nov-13 13:47 140 26 gusting 31 -2.2
2019-Nov-13 13:31 129 25 gusting 30 -2.8
2019-Nov-13 13:16 136 28 gusting 33 -2.8
2019-Nov-13 13:01 134 29 gusting 33 -2.8
2019-Nov-13 12:46 125 28 gusting 33 -2.2
2019-Nov-13 12:31 115 26 gusting 30 -2.2
2019-Nov-13 12:16 128 20 gusting 31 -2.2
2019-Nov-13 12:01 129 21 gusting 28 -2.2
2019-Nov-13 11:45 130 19 gusting 24 -2.2
2019-Nov-13 11:30 133 22 gusting 31 -2.2
2019-Nov-13 11:15 129 25 gusting 27 -2.2
2019-Nov-13 11:00 125 17 gusting 23 -2.2
2019-Nov-13 10:45 117 20 gusting 40 -2.2
2019-Nov-13 10:30 147 30 gusting 38 -2.2
2019-Nov-13 10:15 136 14 gusting 20 -2.2
2019-Nov-13 10:00 148 16 gusting 26 -2.2
2019-Nov-13 09:45 135 21 gusting 32 -2.2
2019-Nov-13 09:30 135 20 gusting 26 -2.2
2019-Nov-13 09:00 134 13 gusting 21 -1.7
2019-Nov-13 08:45 060 8 gusting 13 -1.7
2019-Nov-13 08:30 104 7 gusting 12 -1.7
2019-Nov-13 08:15 077 4 gusting 7 -2.8
2019-Nov-13 08:00 103 11 gusting 15 -2.8